createdAt,value
2019-03-18T00:00:52.611Z,96524.80
2019-03-18T00:03:40.407Z,96527.07
2019-03-18T00:06:28.211Z,96510.20
2019-03-18T00:08:56.972Z,96512.13
2019-03-18T00:11:44.841Z,96504.22
2019-03-18T00:14:32.693Z,96502.23
2019-03-18T00:17:20.599Z,96510.23
2019-03-18T00:20:08.446Z,96521.00
2019-03-18T00:22:56.306Z,96530.52
2019-03-18T00:25:44.269Z,96535.09
2019-03-18T00:28:32.103Z,96533.48
2019-03-18T00:31:40.635Z,96537.28
2019-03-18T00:34:09.290Z,96536.60
2019-03-18T00:36:57.152Z,96528.73
2019-03-18T00:39:45.047Z,96522.66
2019-03-18T00:42:32.870Z,96527.27
2019-03-18T00:45:20.724Z,96527.19
2019-03-18T00:48:08.682Z,96534.38
2019-03-18T00:50:56.517Z,96524.17
2019-03-18T00:53:44.400Z,96522.73
2019-03-18T00:56:32.303Z,96517.92
2019-03-18T00:59:20.338Z,96515.31
2019-03-18T01:02:08.136Z,96511.23
2019-03-18T01:04:55.907Z,96506.73
2019-03-18T01:07:43.722Z,96511.30
2019-03-18T01:10:52.197Z,96510.95
2019-03-18T01:13:40.027Z,96528.02
2019-03-18T01:16:27.851Z,96518.75
2019-03-18T01:19:15.751Z,96526.35
2019-03-18T01:22:03.580Z,96526.96
2019-03-18T01:24:51.514Z,96530.61
2019-03-18T01:27:39.440Z,96517.42
2019-03-18T01:30:47.898Z,96523.19
2019-03-18T01:33:35.619Z,96516.35
2019-03-18T01:36:23.476Z,96504.09
2019-03-18T01:39:11.311Z,96503.30
2019-03-18T01:41:59.075Z,96498.15
2019-03-18T01:44:46.904Z,96499.23
2019-03-18T01:47:34.780Z,96512.04
2019-03-18T01:50:22.607Z,96510.87
2019-03-18T01:53:10.479Z,96512.22
2019-03-18T01:55:58.338Z,96521.16
2019-03-18T01:58:47.738Z,96520.54
2019-03-18T02:01:35.563Z,96524.21
2019-03-18T02:04:23.384Z,96530.17
2019-03-18T02:07:31.854Z,96526.80
2019-03-18T02:10:19.730Z,96525.58
2019-03-18T02:12:48.267Z,96522.31
2019-03-18T02:15:36.079Z,96518.74
2019-03-18T02:18:23.900Z,96516.55
2019-03-18T02:21:11.789Z,96512.91
2019-03-18T02:23:59.600Z,96504.30
2019-03-18T02:26:28.277Z,96514.73
2019-03-18T02:29:16.129Z,96504.50
2019-03-18T02:31:44.736Z,96495.95
2019-03-18T02:34:32.559Z,96499.90
2019-03-18T02:37:20.455Z,96487.05
2019-03-18T02:39:49.042Z,96490.11
2019-03-18T02:42:36.933Z,96492.79
2019-03-18T02:45:25.115Z,96496.39
2019-03-18T02:48:14.480Z,96498.15
2019-03-18T02:50:43.043Z,96504.64
2019-03-18T02:53:31.000Z,96510.62
2019-03-18T02:56:18.915Z,96511.82
2019-03-18T02:59:08.514Z,96521.68
2019-03-18T03:01:56.215Z,96521.52
2019-03-18T03:04:44.063Z,96521.61
2019-03-18T03:07:31.922Z,96524.36
2019-03-18T03:10:19.868Z,96525.94
2019-03-18T03:13:07.663Z,96528.86
2019-03-18T03:15:36.275Z,96527.58
2019-03-18T03:18:04.933Z,96527.23
2019-03-18T03:20:52.804Z,96522.54
2019-03-18T03:23:40.621Z,96523.77
2019-03-18T03:26:28.518Z,96529.75
2019-03-18T03:29:16.359Z,96535.43
2019-03-18T03:32:04.213Z,96534.22
2019-03-18T03:34:52.113Z,96537.14
2019-03-18T03:37:39.993Z,96538.34
2019-03-18T03:40:27.958Z,96541.88
2019-03-18T03:43:15.691Z,96541.98
2019-03-18T03:46:03.467Z,96548.33
2019-03-18T03:48:51.244Z,96550.41
2019-03-18T03:51:39.080Z,96553.28
2019-03-18T03:54:26.926Z,96557.30
2019-03-18T03:56:55.515Z,96570.19
2019-03-18T03:59:43.378Z,96569.16
2019-03-18T04:02:31.073Z,96571.35
2019-03-18T04:04:59.909Z,96577.84
2019-03-18T04:07:47.737Z,96575.81
2019-03-18T04:10:16.423Z,96578.63
2019-03-18T04:13:04.251Z,96573.11
2019-03-18T04:15:32.930Z,96574.03
2019-03-18T04:18:20.743Z,96572.11
2019-03-18T04:20:49.373Z,96578.12
2019-03-18T04:23:37.194Z,96580.25
2019-03-18T04:28:55.078Z,96574.81
2019-03-18T04:31:42.889Z,96580.97
2019-03-18T04:34:30.659Z,96588.00
2019-03-18T04:37:18.535Z,96575.16
2019-03-18T04:40:06.283Z,96576.92
2019-03-18T04:42:54.173Z,96586.60
2019-03-18T04:45:42.300Z,96583.92
2019-03-18T04:48:31.649Z,96583.16
2019-03-18T04:51:19.585Z,96581.74
2019-03-18T04:54:07.420Z,96580.27
2019-03-18T04:56:55.215Z,96588.88
2019-03-18T04:59:43.091Z,96591.06
2019-03-18T05:02:30.840Z,96602.98
2019-03-18T05:04:59.413Z,96593.72
2019-03-18T05:07:28.099Z,96595.70
2019-03-18T05:10:15.937Z,96597.06
2019-03-18T05:13:03.681Z,96605.16
2019-03-18T05:15:32.244Z,96607.58
2019-03-18T05:18:00.927Z,96604.48
2019-03-18T05:20:29.629Z,96599.13
2019-03-18T05:22:58.249Z,96600.69
2019-03-18T05:25:46.150Z,96606.33
2019-03-18T05:28:34.077Z,96612.97
2019-03-18T05:31:21.914Z,96611.58
2019-03-18T05:34:09.774Z,96619.91
2019-03-18T05:36:57.677Z,96622.42
2019-03-18T05:39:26.385Z,96625.83
2019-03-18T05:41:55.008Z,96623.14
2019-03-18T05:44:42.896Z,96631.04
2019-03-18T05:47:11.795Z,96633.53
2019-03-18T05:49:40.455Z,96635.20
2019-03-18T05:52:28.351Z,96635.01
2019-03-18T05:55:16.165Z,96654.57
2019-03-18T06:00:47.868Z,96648.83
2019-03-18T06:03:16.428Z,96652.00
2019-03-18T06:05:45.129Z,96647.63
2019-03-18T06:08:33.074Z,96652.16
2019-03-18T06:11:20.889Z,96651.03
2019-03-18T06:14:08.886Z,96654.00
2019-03-18T06:16:58.534Z,96664.00
2019-03-18T06:19:46.408Z,96676.98
2019-03-18T06:22:34.426Z,96682.83
2019-03-18T06:25:22.301Z,96670.30
2019-03-18T06:28:10.014Z,96657.88
2019-03-18T06:30:57.943Z,96673.47
2019-03-18T06:33:45.774Z,96678.05
2019-03-18T06:36:33.764Z,96679.56
2019-03-18T06:39:21.606Z,96692.84
2019-03-18T06:42:09.551Z,96691.22
2019-03-18T06:44:57.370Z,96699.22
2019-03-18T06:47:45.259Z,96705.37
2019-03-18T06:50:53.846Z,96718.59
2019-03-18T06:53:41.716Z,96712.52
2019-03-18T06:56:29.542Z,96719.02
2019-03-18T06:59:17.581Z,96718.30
2019-03-18T07:02:05.455Z,96715.33
2019-03-18T07:04:53.364Z,96721.88
2019-03-18T07:07:41.239Z,96719.62
2019-03-18T07:10:49.694Z,96725.92
2019-03-18T07:13:37.643Z,96733.20
2019-03-18T07:19:13.038Z,96742.92
2019-03-18T07:22:00.778Z,96744.05
2019-03-18T07:24:48.669Z,96753.81
2019-03-18T07:27:36.628Z,96751.05
2019-03-18T07:30:24.554Z,96763.20
2019-03-18T07:32:53.156Z,96768.08
2019-03-18T07:35:21.840Z,96763.68
2019-03-18T07:37:50.491Z,96764.82
2019-03-18T07:40:19.182Z,96763.28
2019-03-18T07:43:07.117Z,96770.26
2019-03-18T07:45:55.072Z,96762.01
2019-03-18T07:48:30.793Z,96774.08
2019-03-18T07:51:13.084Z,96771.67
2019-03-18T07:54:00.930Z,96770.83
2019-03-18T07:56:48.809Z,96770.96
2019-03-18T07:59:36.641Z,96780.94
2019-03-18T08:05:00.442Z,96786.50
2019-03-18T08:07:48.322Z,96790.34
2019-03-18T08:10:36.151Z,96797.69
2019-03-18T08:13:23.975Z,96799.89
2019-03-18T08:16:11.897Z,96809.98
2019-03-18T08:18:59.652Z,96821.20
2019-03-18T08:21:47.614Z,96819.20
2019-03-18T08:24:35.368Z,96823.17
2019-03-18T08:27:04.032Z,96820.69
2019-03-18T08:29:51.967Z,96822.74
2019-03-18T08:32:39.807Z,96825.67
2019-03-18T08:35:27.694Z,96819.36
2019-03-18T08:38:15.546Z,96825.53
2019-03-18T08:40:44.244Z,96821.22
2019-03-18T08:43:32.152Z,96812.86
2019-03-18T08:46:20.095Z,96817.58
2019-03-18T08:49:07.933Z,96820.74
2019-03-18T08:51:55.800Z,96822.13
2019-03-18T08:54:43.748Z,96822.47
2019-03-18T08:57:31.619Z,96822.23
2019-03-18T09:00:19.487Z,96815.88
2019-03-18T09:03:07.446Z,96817.50
2019-03-18T09:05:55.256Z,96819.53
2019-03-18T09:08:26.408Z,96823.86
2019-03-18T09:11:34.096Z,96812.54
2019-03-18T09:14:22.101Z,96812.50
2019-03-18T09:16:50.724Z,96823.15
2019-03-18T09:19:19.400Z,96819.17
2019-03-18T09:22:07.315Z,96812.50
2019-03-18T09:24:36.011Z,96822.01
2019-03-18T09:27:23.847Z,96831.67
2019-03-18T09:30:11.748Z,96830.07
2019-03-18T09:32:59.626Z,96836.56
2019-03-18T09:35:47.439Z,96835.23
2019-03-18T09:38:35.264Z,96836.68
2019-03-18T09:41:03.948Z,96834.45
2019-03-18T09:43:51.842Z,96844.55
2019-03-18T09:46:39.663Z,96832.85
2019-03-18T09:49:27.609Z,96840.80
2019-03-18T09:51:56.303Z,96847.27
2019-03-18T09:54:44.129Z,96853.65
2019-03-18T09:57:31.995Z,96853.30
2019-03-18T10:00:00.690Z,96859.54
2019-03-18T10:02:48.528Z,96866.20
2019-03-18T10:05:36.457Z,96868.22
2019-03-18T10:08:05.107Z,96882.50
2019-03-18T10:10:53.005Z,96880.05
2019-03-18T10:13:21.674Z,96885.96
2019-03-18T10:16:09.541Z,96895.56
2019-03-18T10:18:57.425Z,96894.56
2019-03-18T10:21:45.360Z,96890.40
2019-03-18T10:24:33.256Z,96889.67
2019-03-18T10:27:01.867Z,96889.84
2019-03-18T10:29:30.503Z,96888.66
2019-03-18T10:32:18.383Z,96893.75
2019-03-18T10:35:06.326Z,96877.20
2019-03-18T10:37:54.153Z,96888.63
2019-03-18T10:40:42.030Z,96882.16
2019-03-18T10:43:29.983Z,96885.86
2019-03-18T10:46:17.748Z,96883.30
2019-03-18T10:48:46.452Z,96874.22
2019-03-18T10:51:36.057Z,96883.36
2019-03-18T10:54:30.958Z,96888.06
2019-03-18T10:56:54.278Z,96884.25
2019-03-18T10:59:42.100Z,96896.27
2019-03-18T11:02:29.977Z,96893.91
2019-03-18T11:05:17.880Z,96897.22
2019-03-18T11:08:05.632Z,96901.48
2019-03-18T11:10:34.311Z,96896.96
2019-03-18T11:15:36.988Z,96895.74
2019-03-18T11:18:24.818Z,96886.72
2019-03-18T11:20:53.504Z,96891.45
2019-03-18T11:23:22.224Z,96895.20
2019-03-18T11:26:10.086Z,96902.17
2019-03-18T11:28:57.869Z,96902.06
2019-03-18T11:31:45.783Z,96896.94
2019-03-18T11:34:33.676Z,96898.00
2019-03-18T11:37:02.388Z,96892.69
2019-03-18T11:39:50.207Z,96892.75
2019-03-18T11:42:58.672Z,96894.39
2019-03-18T11:45:27.289Z,96893.00
2019-03-18T11:47:55.992Z,96892.47
2019-03-18T11:50:43.928Z,96893.11
2019-03-18T11:53:31.693Z,96879.84
2019-03-18T11:56:00.454Z,96882.23
2019-03-18T11:58:48.393Z,96880.30
2019-03-18T12:01:36.276Z,96888.61
2019-03-18T12:04:44.733Z,96885.07
2019-03-18T12:07:32.683Z,96874.30
2019-03-18T12:10:20.554Z,96874.20
2019-03-18T12:13:29.064Z,96869.48
2019-03-18T12:16:16.773Z,96872.33
2019-03-18T12:19:04.645Z,96865.80
2019-03-18T12:21:52.543Z,96864.06
2019-03-18T12:24:40.289Z,96861.61
2019-03-18T12:27:08.938Z,96864.30
2019-03-18T12:29:56.891Z,96877.89
2019-03-18T12:32:44.753Z,96860.19
2019-03-18T12:35:32.649Z,96854.80
2019-03-18T12:38:20.507Z,96862.77
2019-03-18T12:41:08.376Z,96852.23
2019-03-18T12:43:56.218Z,96858.31
2019-03-18T12:46:44.100Z,96865.03
2019-03-18T12:52:06.438Z,96850.52
2019-03-18T12:54:54.344Z,96848.20
2019-03-18T12:57:42.158Z,96872.16
2019-03-18T13:00:50.636Z,96855.53
2019-03-18T13:03:38.521Z,96857.14
2019-03-18T13:06:26.378Z,96839.70
2019-03-18T13:09:14.344Z,96837.16
2019-03-18T13:12:02.185Z,96843.84
2019-03-18T13:14:50.053Z,96839.29
2019-03-18T13:17:18.572Z,96847.73
2019-03-18T13:20:06.434Z,96841.89
2019-03-18T13:22:54.479Z,96861.67
2019-03-18T13:25:44.002Z,96858.70
2019-03-18T13:28:31.800Z,96858.92
2019-03-18T13:31:19.740Z,96846.28
2019-03-18T13:34:07.500Z,96848.42
2019-03-18T13:36:55.384Z,96843.99
2019-03-18T13:39:43.327Z,96837.36
2019-03-18T13:42:11.933Z,96847.87
2019-03-18T13:44:59.763Z,96843.96
2019-03-18T13:47:47.548Z,96845.13
2019-03-18T13:50:56.016Z,96858.09
2019-03-18T13:53:43.899Z,96858.87
2019-03-18T13:56:12.554Z,96861.94
2019-03-18T13:58:41.238Z,96878.02
2019-03-18T14:01:09.885Z,96873.80
2019-03-18T14:03:57.765Z,96873.44
2019-03-18T14:06:45.608Z,96870.14
2019-03-18T14:09:33.469Z,96884.73
2019-03-18T14:12:21.349Z,96877.98
2019-03-18T14:15:09.241Z,96881.83
2019-03-18T14:17:57.123Z,96885.34
2019-03-18T14:21:05.750Z,96886.63
2019-03-18T14:23:53.507Z,96890.44
2019-03-18T14:26:41.376Z,96891.37
2019-03-18T14:29:29.267Z,96885.26
2019-03-18T14:31:57.981Z,96879.30
2019-03-18T14:34:45.890Z,96882.33
2019-03-18T14:37:54.353Z,96887.50
2019-03-18T14:41:02.781Z,96882.20
2019-03-18T14:43:31.482Z,96880.30
2019-03-18T14:46:19.367Z,96884.81
2019-03-18T14:48:48.007Z,96883.58
2019-03-18T14:51:56.482Z,96883.60
2019-03-18T14:54:44.714Z,96884.22
2019-03-18T14:57:13.362Z,96883.66
2019-03-18T14:59:42.057Z,96884.81
2019-03-18T15:02:29.905Z,96885.11
2019-03-18T15:05:17.860Z,96879.09
2019-03-18T15:08:26.319Z,96876.75
2019-03-18T15:10:54.934Z,96887.23
2019-03-18T15:13:42.824Z,96881.48
2019-03-18T15:16:11.499Z,96890.39
2019-03-18T15:18:59.328Z,96884.69
2019-03-18T15:21:58.018Z,96885.26
2019-03-18T15:24:17.726Z,96890.02
2019-03-18T15:26:46.349Z,96898.64
2019-03-18T15:29:14.987Z,96900.14
2019-03-18T15:31:43.720Z,96901.55
2019-03-18T15:34:31.593Z,96904.10
2019-03-18T15:37:19.461Z,96899.52
2019-03-18T15:40:07.389Z,96908.09
2019-03-18T15:42:36.070Z,96913.08
2019-03-18T15:45:44.538Z,96926.65
2019-03-18T15:48:32.333Z,96923.72
2019-03-18T15:51:20.210Z,96930.17
2019-03-18T15:54:07.908Z,96929.37
2019-03-18T15:56:55.858Z,96948.22
2019-03-18T16:07:06.800Z,96964.88
2019-03-18T16:09:54.646Z,96969.52
2019-03-18T16:12:42.525Z,96969.69
2019-03-18T16:15:51.009Z,96975.63
2019-03-18T16:18:38.894Z,96979.66
2019-03-18T16:21:26.757Z,96978.62
2019-03-18T16:24:17.039Z,96974.25
2019-03-18T16:27:04.145Z,96978.95
2019-03-18T16:30:06.068Z,96998.78
2019-03-18T16:32:22.321Z,96988.92
2019-03-18T16:35:10.244Z,96989.19
2019-03-18T16:37:58.014Z,96988.44
2019-03-18T16:40:45.830Z,96996.02
2019-03-18T16:46:21.350Z,96997.97
2019-03-18T16:49:09.234Z,97006.03
2019-03-18T16:51:57.074Z,97012.62
2019-03-18T16:54:44.939Z,97023.98
2019-03-18T16:57:32.950Z,97025.53
2019-03-18T17:00:20.903Z,97024.19
2019-03-18T17:03:08.730Z,97022.58
2019-03-18T17:05:56.509Z,97024.99
2019-03-18T17:08:25.196Z,97025.84
2019-03-18T17:11:13.099Z,97034.33
2019-03-18T17:14:00.857Z,97036.48
2019-03-18T17:16:48.862Z,97039.67
2019-03-18T17:19:17.636Z,97046.59
2019-03-18T17:21:46.386Z,97057.45
2019-03-18T17:24:34.282Z,97056.72
2019-03-18T17:27:22.187Z,97064.63
2019-03-18T17:29:50.908Z,97073.04
2019-03-18T17:32:38.701Z,97080.31
2019-03-18T17:35:47.194Z,97080.67
2019-03-18T17:38:35.080Z,97083.48
2019-03-18T17:41:23.021Z,97081.70
2019-03-18T17:44:10.966Z,97085.04
2019-03-18T17:46:58.908Z,97090.98
2019-03-18T17:49:46.730Z,97097.43
2019-03-18T17:55:08.788Z,97096.07
2019-03-18T17:57:56.796Z,97103.77
2019-03-18T18:00:44.633Z,97106.64
2019-03-18T18:03:32.547Z,97113.48
2019-03-18T18:06:20.628Z,97119.23
2019-03-18T18:09:08.491Z,97129.45
2019-03-18T18:11:56.492Z,97152.48
2019-03-18T18:14:44.531Z,97152.82
2019-03-18T18:17:32.437Z,97163.58
2019-03-18T18:20:20.503Z,97165.91
2019-03-18T18:23:14.128Z,97176.64
2019-03-18T18:25:58.218Z,97183.55
2019-03-18T18:28:46.057Z,97181.74
2019-03-18T18:31:33.999Z,97184.89
2019-03-18T18:34:21.960Z,97183.20
2019-03-18T18:37:09.857Z,97183.37
2019-03-18T18:39:57.896Z,97185.56
2019-03-18T18:42:46.161Z,97188.61
2019-03-18T18:45:34.307Z,97184.34
2019-03-18T18:48:22.314Z,97183.14
2019-03-18T18:56:40.317Z,97172.95
2019-03-18T18:59:08.888Z,97182.84
2019-03-18T19:04:50.246Z,97186.40
2019-03-18T19:07:38.075Z,97184.44
2019-03-18T19:10:46.714Z,97186.79
2019-03-18T19:13:35.023Z,97184.62
2019-03-18T19:16:23.060Z,97174.38
2019-03-18T19:19:11.407Z,97170.16
2019-03-18T19:21:59.551Z,97184.71
2019-03-18T19:24:28.419Z,97180.11
2019-03-18T19:27:16.450Z,97179.13
2019-03-18T19:30:25.099Z,97183.13
2019-03-18T19:33:20.439Z,97184.69
2019-03-18T19:35:49.098Z,97184.69
2019-03-18T19:38:37.234Z,97194.80
2019-03-18T19:41:25.468Z,97201.94
2019-03-18T19:46:41.985Z,97205.94
2019-03-18T19:49:30.196Z,97202.73
2019-03-18T19:52:18.168Z,97204.39
2019-03-18T19:55:06.323Z,97211.44
2019-03-18T19:57:35.055Z,97222.28
2019-03-18T20:00:43.657Z,97223.56
2019-03-18T20:03:31.768Z,97229.30
2019-03-18T20:09:00.179Z,97228.54
2019-03-18T20:14:18.371Z,97224.15
2019-03-18T20:16:47.319Z,97225.89
2019-03-18T20:19:35.569Z,97229.30
2019-03-18T20:28:16.343Z,97253.41
2019-03-18T20:31:04.619Z,97254.58
2019-03-18T20:33:52.824Z,97261.32
2019-03-18T20:36:40.898Z,97264.45
2019-03-18T20:39:28.898Z,97256.06
2019-03-18T20:42:16.880Z,97259.30
2019-03-18T20:45:04.719Z,97255.66
2019-03-18T20:47:52.596Z,97249.41
2019-03-18T20:51:01.294Z,97255.07
2019-03-18T20:53:49.064Z,97259.46
2019-03-18T20:56:37.247Z,97269.78
2019-03-18T20:59:25.203Z,97271.34
2019-03-18T21:02:13.301Z,97273.41
2019-03-18T21:07:35.152Z,97279.82
2019-03-18T21:10:43.579Z,97280.10
2019-03-18T21:16:05.562Z,97272.41
2019-03-18T21:18:53.557Z,97278.14
2019-03-18T21:21:41.380Z,97288.33
2019-03-18T21:24:29.456Z,97283.55
2019-03-18T21:27:17.574Z,97283.05
2019-03-18T21:29:46.073Z,97291.24
2019-03-18T21:35:08.099Z,97292.87
2019-03-18T21:37:56.047Z,97296.86
2019-03-18T21:40:43.921Z,97300.18
2019-03-18T21:43:31.884Z,97300.97
2019-03-18T21:49:32.497Z,97301.20
2019-03-18T21:52:20.209Z,97290.36
2019-03-18T21:55:08.039Z,97296.79
2019-03-18T21:57:55.802Z,97296.97
2019-03-18T22:00:43.613Z,97298.44
2019-03-18T22:03:31.541Z,97308.06
2019-03-18T22:06:19.302Z,97306.84
2019-03-18T22:09:07.140Z,97310.53
2019-03-18T22:11:55.000Z,97313.52
2019-03-18T22:14:42.842Z,97315.83
2019-03-18T22:17:30.739Z,97303.66
2019-03-18T22:20:18.544Z,97305.91
2019-03-18T22:22:47.441Z,97306.17
2019-03-18T22:25:55.867Z,97309.67
2019-03-18T22:34:11.858Z,97313.04
2019-03-18T22:36:59.649Z,97309.70
2019-03-18T22:39:47.603Z,97310.59
2019-03-18T22:42:35.323Z,97317.69
2019-03-18T22:45:43.782Z,97314.45
2019-03-18T22:48:31.500Z,97316.84
2019-03-18T22:51:19.380Z,97313.77
2019-03-18T22:54:07.311Z,97310.05
2019-03-18T22:56:55.232Z,97313.64
2019-03-18T22:59:43.162Z,97310.59
2019-03-18T23:02:31.126Z,97314.56
2019-03-18T23:05:18.959Z,97311.20
2019-03-18T23:10:42.661Z,97314.79
2019-03-18T23:13:30.559Z,97317.24
2019-03-18T23:16:18.492Z,97309.05
2019-03-18T23:19:06.411Z,97310.16
2019-03-18T23:21:54.363Z,97309.78
2019-03-18T23:24:43.488Z,97312.39
2019-03-18T23:27:31.830Z,97313.66
2019-03-18T23:30:19.815Z,97312.27
2019-03-18T23:33:07.664Z,97317.28
2019-03-18T23:35:55.525Z,97323.02
2019-03-18T23:38:43.354Z,97323.02
2019-03-18T23:41:31.235Z,97325.56
2019-03-18T23:44:19.216Z,97325.06
2019-03-18T23:46:47.901Z,97324.95
2019-03-18T23:49:35.836Z,97335.23
2019-03-18T23:52:23.679Z,97328.95
2019-03-18T23:55:19.148Z,97325.27
2019-03-18T23:57:41.972Z,97331.33
